< < Back
Terminal Aerodrome Forecast


Current Version              Previous Versions:   1  2  3  4  5  6  7  8  9  

Terminal Aerodrome Forecast

577
FTUS42 KTAE 040244 AAA
TAFABY
TAF AMD
KABY 040244Z 0403/0424 25004KT P6SM TS BKN040CB
      TEMPO 0403/0404 27020G35KT 2SM +TSRAGR BKN025CB
     FM040400 28003KT P6SM BKN040
     FM041200 32010KT P6SM SCT040=



Latest METAR

049
SAUS70 KWBC 040600 RRF
MTRABY
METAR KABY 040553Z AUTO 00000KT 9SM OVC050 20/19 A2984 RMK AO2 SLP104
60016 T02000194 10217 20194 56015 $


USA.gov is the U.S. government's official web portal to all federal, state and local government web resources and services.